createdAt,value
2022-09-14T00:00:21.679Z,100
2022-09-14T00:01:26.581Z,100
2022-09-14T00:02:24.878Z,100
2022-09-14T00:03:25.387Z,100
2022-09-14T00:04:25.673Z,100
2022-09-14T00:05:26.222Z,100
2022-09-14T00:06:28.284Z,100
2022-09-14T00:07:27.436Z,100
2022-09-14T00:08:27.818Z,100
2022-09-14T00:09:28.379Z,100
2022-09-14T00:10:28.830Z,100
2022-09-14T00:11:31.384Z,100
2022-09-14T00:12:29.647Z,100
2022-09-14T00:13:29.979Z,100
2022-09-14T00:14:30.589Z,100
2022-09-14T00:15:31.614Z,100
2022-09-14T00:16:35.485Z,100
2022-09-14T00:17:33.282Z,100
2022-09-14T00:18:34.916Z,100
2022-09-14T00:19:33.810Z,100
2022-09-14T00:20:35.233Z,100
2022-09-14T00:21:39.503Z,100
2022-09-14T00:22:37.193Z,100
2022-09-14T00:23:39.873Z,100
2022-09-14T00:24:37.940Z,100
2022-09-14T00:25:38.551Z,100
2022-09-14T00:26:38.877Z,100
2022-09-14T00:27:39.367Z,100
2022-09-14T00:28:45.188Z,100
2022-09-14T00:29:42.996Z,100
2022-09-14T00:30:42.988Z,100
2022-09-14T00:31:43.797Z,100
2022-09-14T00:32:43.928Z,100
2022-09-14T00:33:46.190Z,100
2022-09-14T00:34:44.850Z,100
2022-09-14T00:35:45.263Z,100
2022-09-14T00:36:47.674Z,100
2022-09-14T00:37:49.172Z,100
2022-09-14T00:38:48.273Z,100
2022-09-14T00:39:46.986Z,100
2022-09-14T00:41:52.068Z,100
2022-09-14T00:42:50.981Z,100
2022-09-14T00:45:00.799Z,100
2022-09-14T00:46:01.649Z,100
2022-09-14T00:47:02.746Z,100
2022-09-14T00:48:00.149Z,100
2022-09-14T00:49:04.460Z,100
2022-09-14T00:50:04.450Z,100
2022-09-14T00:51:02.381Z,100
2022-09-14T00:53:06.268Z,100
2022-09-14T00:54:06.191Z,100
2022-09-14T00:56:07.920Z,100
2022-09-14T00:57:08.771Z,100
2022-09-14T00:58:09.062Z,100
2022-09-14T01:00:16.259Z,100
2022-09-14T01:01:14.587Z,100
2022-09-14T01:02:15.218Z,100
2022-09-14T01:03:14.877Z,100
2022-09-14T01:04:15.050Z,100
2022-09-14T01:05:16.696Z,100
2022-09-14T01:21:55.399Z,100
2022-09-14T01:31:13.679Z,100
2022-09-14T01:36:29.051Z,100
2022-09-14T01:39:34.110Z,100
2022-09-14T01:40:40.078Z,100
2022-09-14T01:41:34.530Z,100
2022-09-14T01:42:35.329Z,100
2022-09-14T01:44:38.756Z,100
2022-09-14T01:45:44.236Z,100
2022-09-14T01:46:44.813Z,100
2022-09-14T01:47:45.936Z,100
2022-09-14T01:48:43.554Z,100
2022-09-14T01:49:46.160Z,100
2022-09-14T01:51:50.293Z,100
2022-09-14T02:07:27.966Z,100
2022-09-14T02:08:30.116Z,100
2022-09-14T02:09:28.396Z,100
2022-09-14T02:10:29.193Z,100
2022-09-14T02:11:29.219Z,100
2022-09-14T02:12:29.723Z,100
2022-09-14T02:13:30.132Z,100
2022-09-14T02:14:30.988Z,100
2022-09-14T02:15:30.749Z,100
2022-09-14T02:16:31.652Z,100
2022-09-14T02:17:31.593Z,100
2022-09-14T02:18:32.308Z,100
2022-09-14T02:19:37.760Z,100
2022-09-14T02:21:36.628Z,100
2022-09-14T02:22:36.859Z,100
2022-09-14T02:23:37.888Z,100
2022-09-14T02:24:38.718Z,100
2022-09-14T02:25:38.844Z,100
2022-09-14T02:26:39.750Z,100
2022-09-14T02:27:39.547Z,100
2022-09-14T02:28:40.176Z,100
2022-09-14T02:29:40.396Z,100
2022-09-14T02:36:01.220Z,100
2022-09-14T02:55:36.039Z,100
2022-09-14T02:56:35.259Z,100
2022-09-14T02:58:37.967Z,100
2022-09-14T02:59:36.389Z,100
2022-09-14T03:00:40.679Z,100
2022-09-14T03:01:38.588Z,100
2022-09-14T03:02:38.759Z,100
2022-09-14T03:03:39.276Z,100
2022-09-14T03:04:39.598Z,100
2022-09-14T03:05:40.220Z,100
2022-09-14T03:06:40.430Z,100
2022-09-14T03:07:40.842Z,100
2022-09-14T03:08:41.769Z,100
2022-09-14T03:09:41.593Z,100
2022-09-14T03:10:43.715Z,100
2022-09-14T03:11:42.512Z,100
2022-09-14T03:12:42.808Z,100
2022-09-14T03:13:43.230Z,100
2022-09-14T03:14:43.823Z,100
2022-09-14T03:15:44.014Z,100
2022-09-14T03:16:44.377Z,100
2022-09-14T03:18:48.390Z,100
2022-09-14T03:19:48.807Z,100
2022-09-14T03:20:49.222Z,100
2022-09-14T03:21:49.838Z,100
2022-09-14T03:22:50.388Z,100
2022-09-14T03:23:52.942Z,100
2022-09-14T03:24:50.729Z,100
2022-09-14T03:25:51.301Z,100
2022-09-14T03:26:51.918Z,100
2022-09-14T03:28:57.152Z,100
2022-09-14T03:29:55.017Z,100
2022-09-14T03:30:55.973Z,100
2022-09-14T03:31:55.941Z,100
2022-09-14T03:32:56.015Z,100
2022-09-14T03:33:58.305Z,100
2022-09-14T03:34:56.985Z,100
2022-09-14T03:35:57.415Z,100
2022-09-14T03:36:58.127Z,100
2022-09-14T03:37:59.159Z,100
2022-09-14T03:39:00.387Z,100
2022-09-14T03:39:59.108Z,100
2022-09-14T03:40:59.588Z,100
2022-09-14T03:42:00.089Z,100
2022-09-14T03:43:00.529Z,100
2022-09-14T03:44:01.051Z,100
2022-09-14T03:45:01.318Z,100
2022-09-14T03:47:06.140Z,100
2022-09-14T03:48:06.088Z,100
2022-09-14T03:49:06.603Z,100
2022-09-14T03:50:08.550Z,100
2022-09-14T03:51:09.656Z,100
2022-09-14T03:52:08.183Z,100
2022-09-14T03:53:08.633Z,100
2022-09-14T03:54:09.312Z,100
2022-09-14T03:55:10.409Z,100
2022-09-14T03:57:13.317Z,100
2022-09-14T03:58:13.468Z,100
2022-09-14T03:59:13.835Z,100
2022-09-14T04:00:15.188Z,100
2022-09-14T04:01:17.951Z,100
2022-09-14T04:02:15.997Z,100
2022-09-14T04:03:16.171Z,100
2022-09-14T04:04:16.543Z,100
2022-09-14T04:05:21.611Z,100
2022-09-14T04:06:19.924Z,100
2022-09-14T04:07:19.842Z,100
2022-09-14T04:08:20.259Z,100
2022-09-14T04:09:21.376Z,100
2022-09-14T04:10:21.080Z,100
2022-09-14T04:11:23.954Z,100
2022-09-14T04:12:22.014Z,100
2022-09-14T04:13:22.438Z,100
2022-09-14T04:14:24.187Z,100
2022-09-14T04:15:23.156Z,100
2022-09-14T04:16:23.708Z,100
2022-09-14T04:17:23.988Z,100
2022-09-14T04:18:24.513Z,100
2022-09-14T04:19:25.031Z,100
2022-09-14T04:20:25.450Z,100
2022-09-14T04:21:26.580Z,100
2022-09-14T04:22:26.076Z,100
2022-09-14T04:23:26.798Z,100
2022-09-14T04:24:30.358Z,100
2022-09-14T04:25:28.250Z,100
2022-09-14T04:26:30.398Z,100
2022-09-14T04:27:30.611Z,100
2022-09-14T04:28:29.609Z,100
2022-09-14T04:29:30.008Z,100
2022-09-14T04:30:30.427Z,100
2022-09-14T04:31:31.874Z,100
2022-09-14T04:32:34.427Z,100
2022-09-14T04:33:34.348Z,100
2022-09-14T04:34:32.710Z,100
2022-09-14T04:35:33.224Z,100
2022-09-14T04:36:33.739Z,100
2022-09-14T04:37:34.056Z,100
2022-09-14T04:38:36.107Z,100
2022-09-14T04:39:34.685Z,100
2022-09-14T04:40:34.948Z,100
2022-09-14T04:41:35.511Z,100
2022-09-14T04:42:36.030Z,100
2022-09-14T04:43:37.040Z,100
2022-09-14T04:44:36.772Z,100
2022-09-14T04:45:37.281Z,100
2022-09-14T04:46:43.466Z,100
2022-09-14T04:47:38.518Z,100
2022-09-14T04:48:39.037Z,100
2022-09-14T04:49:39.349Z,100
2022-09-14T04:50:39.973Z,100
2022-09-14T04:51:40.390Z,100
2022-09-14T04:52:40.606Z,100
2022-09-14T04:53:41.016Z,100
2022-09-14T04:54:41.438Z,100
2022-09-14T04:55:41.859Z,100
2022-09-14T04:56:42.370Z,100
2022-09-14T04:57:42.556Z,100
2022-09-14T04:58:51.221Z,100
2022-09-14T04:59:44.086Z,100
2022-09-14T05:00:45.055Z,100
2022-09-14T05:01:47.144Z,100
2022-09-14T05:02:45.971Z,100
2022-09-14T05:03:46.917Z,100
2022-09-14T05:04:46.825Z,100
2022-09-14T05:05:47.343Z,100
2022-09-14T05:06:47.657Z,100
2022-09-14T05:07:47.972Z,100
2022-09-14T05:08:49.715Z,100
2022-09-14T05:09:48.918Z,100
2022-09-14T05:10:49.427Z,100
2022-09-14T05:11:49.962Z,100
2022-09-14T05:12:50.255Z,100
2022-09-14T05:13:51.241Z,100
2022-09-14T05:14:50.982Z,100
2022-09-14T05:15:51.484Z,100
2022-09-14T05:16:52.077Z,100
2022-09-14T05:17:52.240Z,100
2022-09-14T05:18:56.948Z,100
2022-09-14T05:19:54.406Z,100
2022-09-14T05:20:54.815Z,100
2022-09-14T05:21:55.238Z,100
2022-09-14T05:22:55.548Z,100
2022-09-14T05:23:57.702Z,100
2022-09-14T05:24:56.375Z,100
2022-09-14T05:25:57.309Z,100
2022-09-14T05:27:01.005Z,100
2022-09-14T05:27:59.571Z,100
2022-09-14T05:29:02.150Z,100
2022-09-14T05:30:00.410Z,100
2022-09-14T05:31:05.331Z,100
2022-09-14T05:32:03.499Z,100
2022-09-14T05:33:03.505Z,100
2022-09-14T05:34:04.243Z,100
2022-09-14T05:35:05.268Z,100
2022-09-14T05:36:07.433Z,100
2022-09-14T05:37:05.983Z,100
2022-09-14T05:38:05.840Z,100
2022-09-14T05:39:07.528Z,100
2022-09-14T05:40:08.062Z,100
2022-09-14T05:41:10.335Z,100
2022-09-14T05:42:08.266Z,100
2022-09-14T05:43:08.789Z,100
2022-09-14T05:44:09.630Z,100
2022-09-14T05:45:10.444Z,100
2022-09-14T05:46:17.982Z,100
2022-09-14T05:47:10.786Z,100
2022-09-14T05:48:10.762Z,100
2022-09-14T05:49:11.287Z,100
2022-09-14T05:50:11.551Z,100
2022-09-14T05:51:17.318Z,100
2022-09-14T05:52:14.886Z,100
2022-09-14T05:53:15.276Z,100
2022-09-14T05:54:15.615Z,99.93
2022-09-14T05:55:16.134Z,99.9
2022-09-14T05:56:18.117Z,99.56
2022-09-14T05:57:17.489Z,99.24
2022-09-14T05:58:17.894Z,99.06
2022-09-14T05:59:18.289Z,98.96
2022-09-14T06:00:19.852Z,98.86
2022-09-14T06:01:25.250Z,98.85
2022-09-14T06:02:22.792Z,98.79
2022-09-14T06:03:23.667Z,98.53
2022-09-14T06:04:24.076Z,98.25
2022-09-14T06:05:24.018Z,98.27
2022-09-14T06:06:25.029Z,98.07
2022-09-14T06:07:25.071Z,97.97
2022-09-14T06:08:25.227Z,97.99
2022-09-14T06:09:28.966Z,97.96
2022-09-14T06:10:30.059Z,97.65
2022-09-14T06:11:33.238Z,97.38
2022-09-14T06:12:30.922Z,97.03
2022-09-14T06:13:31.302Z,97.42
2022-09-14T06:14:31.934Z,97.69
2022-09-14T06:15:34.502Z,97.26
2022-09-14T06:16:32.861Z,97.15
2022-09-14T06:17:32.866Z,97.36
2022-09-14T06:18:36.637Z,97.28
2022-09-14T06:19:34.723Z,97.23
2022-09-14T06:20:35.934Z,97.08
2022-09-14T06:21:35.346Z,96.83
2022-09-14T06:22:35.891Z,96.84
2022-09-14T06:23:36.921Z,96.92
2022-09-14T06:24:36.503Z,96.96
2022-09-14T06:25:36.915Z,97.06
2022-09-14T06:26:37.531Z,96.65
2022-09-14T06:27:38.267Z,96.65
2022-09-14T06:28:38.782Z,96.73
2022-09-14T06:29:38.791Z,96.68
2022-09-14T06:30:43.109Z,96.98
2022-09-14T06:31:40.851Z,96.85
2022-09-14T06:32:41.157Z,96.92
2022-09-14T06:33:49.258Z,96.97
2022-09-14T06:34:41.899Z,97.09
2022-09-14T06:35:42.411Z,96.82
2022-09-14T06:36:42.828Z,96.91
2022-09-14T06:37:43.098Z,97.08
2022-09-14T06:38:43.816Z,97.25
2022-09-14T06:39:44.217Z,97.13
2022-09-14T06:41:48.803Z,96.76
2022-09-14T06:42:48.707Z,96.71
2022-09-14T06:43:50.397Z,96.6
2022-09-14T06:44:49.604Z,96.46
2022-09-14T06:46:52.518Z,96.65
2022-09-14T06:47:52.830Z,96.64
2022-09-14T06:49:55.609Z,96.6
2022-09-14T06:50:56.232Z,96.06
2022-09-14T06:51:56.643Z,96.05
2022-09-14T06:52:57.576Z,96.03
2022-09-14T06:53:59.113Z,96.07
2022-09-14T06:54:58.398Z,96.06
2022-09-14T06:55:58.817Z,96.17
2022-09-14T06:56:59.111Z,96.04
2022-09-14T06:57:59.650Z,95.84
2022-09-14T06:59:00.142Z,95.98
2022-09-14T07:00:00.730Z,95.85
2022-09-14T07:02:02.600Z,96.29
2022-09-14T07:03:03.456Z,96.53
2022-09-14T07:04:04.607Z,96.42
2022-09-14T07:05:04.815Z,96.42
2022-09-14T07:06:10.255Z,96.53
2022-09-14T07:07:07.702Z,96.49
2022-09-14T07:08:12.091Z,96.44
2022-09-14T07:09:10.574Z,96.42
2022-09-14T07:10:10.547Z,96.52
2022-09-14T07:11:12.446Z,96.5
2022-09-14T07:12:11.528Z,96.59
2022-09-14T07:13:11.627Z,96.73
2022-09-14T07:14:12.568Z,96.78
2022-09-14T07:15:12.975Z,97
2022-09-14T07:16:13.711Z,96.99
2022-09-14T07:17:13.403Z,97.04
2022-09-14T07:18:15.345Z,96.87
2022-09-14T07:19:15.662Z,97.24
2022-09-14T07:20:14.936Z,97.33
2022-09-14T07:21:17.322Z,97.24
2022-09-14T07:22:15.684Z,97.1
2022-09-14T07:23:16.016Z,97.27
2022-09-14T07:24:16.919Z,97.31
2022-09-14T07:25:17.134Z,97.41
2022-09-14T07:26:23.083Z,97.34
2022-09-14T07:27:20.632Z,97.4
2022-09-14T07:28:20.950Z,97.01
2022-09-14T07:29:21.668Z,96.88
2022-09-14T07:30:22.045Z,96.89
2022-09-14T07:31:28.152Z,96.87
2022-09-14T07:32:25.690Z,96.8
2022-09-14T07:33:26.480Z,96.99
2022-09-14T07:34:26.714Z,96.81
2022-09-14T07:35:27.030Z,97.02
2022-09-14T07:36:31.605Z,96.99
2022-09-14T07:37:32.167Z,96.76
2022-09-14T07:38:51.042Z,96.36
2022-09-14T07:39:34.759Z,96.27
2022-09-14T07:40:35.163Z,96.33
2022-09-14T07:41:36.289Z,95.96
2022-09-14T07:42:36.198Z,95.45
2022-09-14T07:43:36.409Z,95.17
2022-09-14T07:44:36.717Z,95.42
2022-09-14T07:45:38.453Z,95.54
2022-09-14T07:46:40.518Z,95.46
2022-09-14T07:47:38.323Z,95.42
2022-09-14T07:48:38.700Z,94.95
2022-09-14T07:49:39.008Z,94.75
2022-09-14T07:50:39.430Z,94.57
2022-09-14T07:51:40.470Z,94.8
2022-09-14T07:52:40.458Z,94.87
2022-09-14T07:53:42.897Z,94.77
2022-09-14T07:54:41.266Z,94.48
2022-09-14T07:55:41.802Z,94.65
2022-09-14T07:56:42.648Z,94.29
2022-09-14T07:57:55.787Z,93.52
2022-09-14T07:58:44.693Z,93.57
2022-09-14T07:59:44.809Z,93.86
2022-09-14T08:00:45.035Z,93.67
2022-09-14T08:01:45.903Z,93.57
2022-09-14T08:02:52.702Z,93.57
2022-09-14T08:03:50.641Z,93.93
2022-09-14T08:04:50.948Z,93.87
2022-09-14T08:06:01.647Z,93.6
2022-09-14T08:06:54.279Z,93.11
2022-09-14T08:07:56.220Z,93.16
2022-09-14T08:08:55.989Z,92.91
2022-09-14T08:09:55.621Z,92.94
2022-09-14T08:10:55.907Z,92.47
2022-09-14T08:11:56.346Z,92.59
2022-09-14T08:12:56.771Z,92.69
2022-09-14T08:13:59.636Z,92.29
2022-09-14T08:14:57.908Z,92.08
2022-09-14T08:15:58.033Z,92.07
2022-09-14T08:16:58.551Z,91.91
2022-09-14T08:17:58.950Z,92.3
2022-09-14T08:19:01.733Z,92.32
2022-09-14T08:19:59.898Z,91.7
2022-09-14T08:21:05.637Z,91.51
2022-09-14T08:22:04.208Z,91.42
2022-09-14T08:23:03.484Z,91.42
2022-09-14T08:24:04.720Z,91.81
2022-09-14T08:25:05.258Z,91.73
2022-09-14T08:26:11.313Z,91.46
2022-09-14T08:27:10.171Z,91.1
2022-09-14T08:28:09.268Z,90.84
2022-09-14T08:29:09.781Z,90.92
2022-09-14T08:30:11.420Z,90.89
2022-09-14T08:31:16.305Z,90.44
2022-09-14T08:32:13.787Z,89.88
2022-09-14T08:33:14.299Z,90.15
2022-09-14T08:34:16.261Z,89.88
2022-09-14T08:35:15.607Z,89.85
2022-09-14T08:36:19.548Z,89.35
2022-09-14T08:37:17.526Z,89.22
2022-09-14T08:38:17.933Z,87.98
2022-09-14T08:39:18.335Z,88.02
2022-09-14T08:40:18.775Z,88.34
2022-09-14T08:42:23.482Z,88.04
2022-09-14T08:43:26.129Z,88.18
2022-09-14T08:44:28.610Z,88.22
2022-09-14T08:45:26.229Z,87.62
2022-09-14T08:46:34.764Z,87.87
2022-09-14T08:47:37.226Z,87.27
2022-09-14T08:48:41.748Z,87.59
2022-09-14T08:49:43.897Z,87.79
2022-09-14T08:50:38.857Z,88.01
2022-09-14T08:51:36.849Z,88.45
2022-09-14T08:52:50.888Z,88.25
2022-09-14T08:53:40.558Z,88.42
2022-09-14T08:54:39.018Z,87.98
2022-09-14T09:10:25.196Z,86.87
2022-09-14T09:11:26.702Z,86.72
2022-09-14T09:13:34.547Z,87.28
2022-09-14T09:14:37.217Z,87.04
2022-09-14T09:15:45.712Z,86.36
2022-09-14T09:16:39.242Z,86.79
2022-09-14T09:17:46.953Z,87.15
2022-09-14T09:18:49.297Z,87.12
2022-09-14T09:21:48.130Z,87.32
2022-09-14T09:23:51.263Z,86.79
2022-09-14T09:24:55.645Z,86.6
2022-09-14T09:26:57.455Z,86.17
2022-09-14T09:29:03.822Z,85.99
2022-09-14T09:30:02.292Z,85.99
2022-09-14T09:31:05.696Z,85.98
2022-09-14T09:32:06.044Z,85.52
2022-09-14T09:33:04.165Z,85.42
2022-09-14T09:34:04.563Z,85.36
2022-09-14T09:35:06.114Z,85.25
2022-09-14T09:36:07.333Z,85.08
2022-09-14T09:37:05.405Z,85.39
2022-09-14T09:38:14.838Z,85.42
2022-09-14T09:39:07.387Z,84.69
2022-09-14T09:43:28.959Z,84.41
2022-09-14T09:44:19.578Z,84.76
2022-09-14T09:45:19.890Z,84.75
2022-09-14T09:46:20.522Z,84.56
2022-09-14T09:50:26.592Z,85
2022-09-14T09:51:29.876Z,84.75
2022-09-14T09:52:29.175Z,84.14
2022-09-14T09:53:28.554Z,84.6
2022-09-14T09:57:40.249Z,84.16
2022-09-14T09:58:40.572Z,83.85
2022-09-14T09:59:42.737Z,84.59
2022-09-14T10:00:41.779Z,84.72
2022-09-14T10:01:42.165Z,84.33
2022-09-14T10:02:42.538Z,84.17
2022-09-14T10:03:42.763Z,84.04
2022-09-14T10:06:00.890Z,83.96
2022-09-14T10:06:52.622Z,84.06
2022-09-14T10:08:01.616Z,83.83
2022-09-14T10:08:56.195Z,83.72
2022-09-14T10:10:56.008Z,83.12
2022-09-14T10:12:58.473Z,83.13
2022-09-14T10:13:59.719Z,83.62
2022-09-14T10:18:18.960Z,84.12
2022-09-14T10:19:20.031Z,84.3
2022-09-14T10:20:22.302Z,84.73
2022-09-14T10:21:22.464Z,84.43
2022-09-14T10:24:24.683Z,84.26
2022-09-14T10:25:26.524Z,84.35
2022-09-14T10:26:27.860Z,85.04
2022-09-14T10:28:32.767Z,84.74
2022-09-14T10:31:41.041Z,84.68
2022-09-14T10:32:43.568Z,83.68
2022-09-14T10:33:41.313Z,83.47
2022-09-14T10:34:42.556Z,83.46
2022-09-14T10:36:53.928Z,83.72
2022-09-14T10:46:13.263Z,83.78
2022-09-14T11:09:05.512Z,81.22
2022-09-14T11:32:20.283Z,80.44
2022-09-14T11:37:14.866Z,80.39
2022-09-14T11:47:40.070Z,80.39
2022-09-14T11:50:42.136Z,80.65
2022-09-14T11:52:41.030Z,81.19
2022-09-14T11:53:45.114Z,80.69
2022-09-14T11:54:46.797Z,80.7
2022-09-14T11:55:48.617Z,80.18
2022-09-14T11:57:50.161Z,81.09
2022-09-14T11:58:50.614Z,81.29
2022-09-14T11:59:53.236Z,81.33
2022-09-14T12:01:52.745Z,81.16
2022-09-14T12:07:02.308Z,81.89
2022-09-14T12:10:21.881Z,82.52
2022-09-14T12:11:26.613Z,82.07
2022-09-14T12:12:30.183Z,81.97
2022-09-14T12:13:22.828Z,80.97
2022-09-14T12:14:34.876Z,81.84
2022-09-14T12:15:37.617Z,82.06
2022-09-14T12:16:34.366Z,82.3
2022-09-14T12:17:41.574Z,81.94
2022-09-14T12:18:39.112Z,82.16
2022-09-14T12:19:37.086Z,81.9
2022-09-14T12:20:45.101Z,81.94
2022-09-14T12:21:37.721Z,82.34
2022-09-14T12:22:38.651Z,81.98
2022-09-14T12:23:44.554Z,81.8
2022-09-14T12:24:42.403Z,82.42
2022-09-14T12:26:46.155Z,81.8
2022-09-14T12:27:49.535Z,81.86
2022-09-14T12:28:52.323Z,81.44
2022-09-14T12:29:50.225Z,81.37
2022-09-14T12:32:55.320Z,81.34
2022-09-14T12:37:06.594Z,81.37
2022-09-14T12:49:31.364Z,80.41
2022-09-14T12:53:35.579Z,79.51
2022-09-14T13:03:58.591Z,79.99
2022-09-14T13:04:58.732Z,80.42
2022-09-14T13:05:58.997Z,80.35
2022-09-14T13:07:02.075Z,80.36
2022-09-14T13:08:00.254Z,80.34
2022-09-14T13:09:01.592Z,80.69
2022-09-14T13:10:02.217Z,80.34
2022-09-14T13:11:01.239Z,80.58
2022-09-14T13:13:08.682Z,81.66
2022-09-14T13:14:12.779Z,82.15
2022-09-14T13:17:17.707Z,81.82
2022-09-14T13:20:21.789Z,81.52
2022-09-14T13:21:23.679Z,81.51
2022-09-14T13:22:25.485Z,81.62
2022-09-14T13:25:38.250Z,81.87
2022-09-14T13:26:31.769Z,81.96
2022-09-14T13:27:37.133Z,81.6
2022-09-14T13:28:35.082Z,81.75
2022-09-14T13:29:35.109Z,81.85
2022-09-14T13:30:36.092Z,82.01
2022-09-14T13:31:39.506Z,82.23
2022-09-14T13:32:45.630Z,82.85
2022-09-14T13:33:38.403Z,83.2
2022-09-14T13:34:39.638Z,82.78
2022-09-14T13:35:48.034Z,82.38
2022-09-14T13:36:44.553Z,82.43
2022-09-14T13:37:46.250Z,82.39
2022-09-14T13:38:46.319Z,82.27
2022-09-14T13:39:51.848Z,82.65
2022-09-14T13:40:50.934Z,82.67
2022-09-14T13:41:50.548Z,82.63
2022-09-14T13:42:50.862Z,83.12
2022-09-14T13:43:54.731Z,82.95
2022-09-14T13:44:53.292Z,82.94
2022-09-14T13:45:52.761Z,82.8
2022-09-14T13:46:55.282Z,83.15
2022-09-14T13:47:54.670Z,83.15
2022-09-14T13:48:55.100Z,83.18
2022-09-14T13:49:55.068Z,83.59
2022-09-14T13:50:55.201Z,83.78
2022-09-14T13:53:02.403Z,83.97
2022-09-14T13:59:17.267Z,85.49
2022-09-14T14:00:20.558Z,84.69
2022-09-14T14:01:28.427Z,84.87
2022-09-14T14:02:21.239Z,84.84
2022-09-14T14:04:38.936Z,85.14
2022-09-14T14:05:35.130Z,85.18
2022-09-14T14:06:30.217Z,85.07
2022-09-14T14:07:37.190Z,85.26
2022-09-14T14:08:38.162Z,85.28
2022-09-14T14:10:44.990Z,85.66
2022-09-14T14:11:43.252Z,85.68
2022-09-14T14:12:42.750Z,85.74
2022-09-14T14:13:41.219Z,85.76
2022-09-14T14:14:41.640Z,85.96
2022-09-14T14:15:43.686Z,85.81
2022-09-14T14:17:45.711Z,86.52
2022-09-14T14:19:53.769Z,86.77
2022-09-14T14:20:51.519Z,87.01
2022-09-14T14:21:51.580Z,86.46
2022-09-14T14:25:12.700Z,86.98
2022-09-14T14:26:15.289Z,86.93
2022-09-14T14:27:02.911Z,86.81
2022-09-14T14:28:05.738Z,86.8
2022-09-14T14:29:10.013Z,86.99
2022-09-14T14:30:16.959Z,86.94
2022-09-14T14:31:15.220Z,86.79
2022-09-14T14:32:12.834Z,86.64
2022-09-14T14:33:15.530Z,86.52
2022-09-14T14:34:25.282Z,86.42
2022-09-14T14:35:20.850Z,86.41
2022-09-14T14:36:18.637Z,86.23
2022-09-14T14:37:20.461Z,86.45
2022-09-14T14:38:21.109Z,86.13
2022-09-14T14:39:23.269Z,85.92
2022-09-14T14:40:21.192Z,86.12
2022-09-14T14:41:21.943Z,85.85
2022-09-14T14:42:22.668Z,85.81
2022-09-14T14:43:25.556Z,85.71
2022-09-14T14:44:25.858Z,85.82
2022-09-14T14:45:25.281Z,85.79
2022-09-14T14:46:24.335Z,85.88
2022-09-14T14:47:24.543Z,85.79
2022-09-14T14:48:25.474Z,85.95
2022-09-14T14:49:25.580Z,85.8
2022-09-14T14:50:31.628Z,85.99
2022-09-14T14:51:29.117Z,85.87
2022-09-14T14:52:29.600Z,85.75
2022-09-14T14:53:30.218Z,86.11
2022-09-14T14:54:30.546Z,85.89
2022-09-14T14:55:32.996Z,85.91
2022-09-14T14:56:32.191Z,85.9
2022-09-14T14:57:32.505Z,85.88
2022-09-14T14:58:36.303Z,86.02
2022-09-14T14:59:34.158Z,85.84
2022-09-14T15:00:37.231Z,86.17
2022-09-14T15:01:35.308Z,86.02
2022-09-14T15:02:35.612Z,85.98
2022-09-14T15:03:36.394Z,86.32
2022-09-14T15:04:36.339Z,86.44
2022-09-14T15:05:43.922Z,86.92
2022-09-14T15:06:41.727Z,87.15
2022-09-14T15:07:41.989Z,87.52
2022-09-14T15:08:42.621Z,86.95
2022-09-14T15:09:43.031Z,87.13
2022-09-14T15:10:43.956Z,87.61
2022-09-14T15:11:45.183Z,87.47
2022-09-14T15:12:44.889Z,87.54
2022-09-14T15:13:46.046Z,87.25
2022-09-14T15:14:45.609Z,87.49
2022-09-14T15:15:45.518Z,87.58
2022-09-14T15:16:47.788Z,87.38
2022-09-14T15:17:47.069Z,87.61
2022-09-14T15:18:47.698Z,87.7
2022-09-14T15:19:47.901Z,87.56
2022-09-14T15:20:48.319Z,87.49
2022-09-14T15:21:48.813Z,87.55
2022-09-14T15:22:49.862Z,87.59
2022-09-14T15:23:50.105Z,87.96
2022-09-14T15:24:50.079Z,87.96
2022-09-14T15:25:53.368Z,87.71
2022-09-14T15:26:51.124Z,88.09
2022-09-14T15:27:51.435Z,87.77
2022-09-14T15:28:52.182Z,87.87
2022-09-14T15:29:52.363Z,87.92
2022-09-14T15:30:52.989Z,88.24
2022-09-14T15:31:53.380Z,87.97
2022-09-14T15:32:53.738Z,87.75
2022-09-14T15:33:54.446Z,87.85
2022-09-14T15:34:54.668Z,88.08
2022-09-14T15:35:57.016Z,88.51
2022-09-14T15:36:55.481Z,88.48
2022-09-14T15:37:55.900Z,88.67
2022-09-14T15:38:57.010Z,88.79
2022-09-14T15:39:57.027Z,88.92
2022-09-14T15:40:57.259Z,89
2022-09-14T15:41:58.384Z,88.63
2022-09-14T15:42:58.090Z,88.65
2022-09-14T15:43:58.917Z,88.6
2022-09-14T15:44:59.229Z,88.33
2022-09-14T15:46:03.418Z,88.26
2022-09-14T15:47:01.388Z,88.69
2022-09-14T15:48:02.521Z,88.59
2022-09-14T15:49:08.160Z,88.62
2022-09-14T15:50:06.538Z,88.33
2022-09-14T15:51:11.041Z,88.71
2022-09-14T15:52:09.924Z,88.75
2022-09-14T15:53:10.036Z,88.75
2022-09-14T15:54:09.424Z,88.33
2022-09-14T15:55:11.780Z,87.95
2022-09-14T15:56:11.275Z,87.57
2022-09-14T15:57:11.893Z,87.77
2022-09-14T15:58:12.323Z,87.84
2022-09-14T15:59:11.813Z,87.92
2022-09-14T16:00:13.971Z,87.87
2022-09-14T16:01:15.089Z,87.97
2022-09-14T16:02:13.263Z,88.08
2022-09-14T16:03:13.454Z,88.18
2022-09-14T16:04:14.608Z,87.77
2022-09-14T16:05:14.416Z,87.97
2022-09-14T16:06:15.238Z,88.39
2022-09-14T16:07:15.951Z,89.04
2022-09-14T16:08:15.860Z,88.78
2022-09-14T16:09:17.603Z,88.72
2022-09-14T16:10:16.835Z,88.32
2022-09-14T16:11:17.124Z,87.92
2022-09-14T16:12:17.496Z,87.68
2022-09-14T16:13:17.946Z,87.48
2022-09-14T16:14:18.593Z,87.65
2022-09-14T16:15:18.769Z,87.58
2022-09-14T16:16:20.418Z,87.77
2022-09-14T16:17:19.618Z,88.12
2022-09-14T16:18:20.641Z,88.19
2022-09-14T16:19:20.533Z,88.09
2022-09-14T16:20:21.225Z,88.17
2022-09-14T16:21:27.023Z,88.59
2022-09-14T16:22:24.765Z,88.51
2022-09-14T16:23:25.084Z,88.79
2022-09-14T16:24:25.692Z,88.84
2022-09-14T16:25:26.015Z,88.91
2022-09-14T16:26:29.694Z,89.04
2022-09-14T16:27:30.326Z,88.99
2022-09-14T16:28:27.975Z,88.91
2022-09-14T16:29:28.493Z,89.04
2022-09-14T16:30:28.680Z,89.27
2022-09-14T16:31:31.756Z,89.57
2022-09-14T16:32:29.635Z,89.74
2022-09-14T16:33:30.164Z,89.84
2022-09-14T16:34:30.575Z,90.01
2022-09-14T16:35:30.885Z,89.92
2022-09-14T16:36:34.147Z,90.03
2022-09-14T16:37:31.826Z,90.17
2022-09-14T16:38:32.442Z,90.09
2022-09-14T16:39:32.954Z,90.16
2022-09-14T16:40:33.156Z,90.15
2022-09-14T16:41:33.781Z,90.33
2022-09-14T16:42:33.996Z,90.33
2022-09-14T16:43:35.250Z,90.43
2022-09-14T16:44:35.040Z,90.45
2022-09-14T16:45:35.348Z,90.51
2022-09-14T16:46:35.770Z,90.52
2022-09-14T16:47:37.115Z,90.49
2022-09-14T16:48:40.629Z,90.59
2022-09-14T16:49:38.446Z,91.15
2022-09-14T16:50:38.671Z,91.41
2022-09-14T16:51:39.389Z,91.21
2022-09-14T16:52:39.673Z,91.21
2022-09-14T16:53:42.269Z,91.33
2022-09-14T16:54:40.739Z,91.45
2022-09-14T16:55:40.858Z,91.53
2022-09-14T16:56:41.381Z,91.37
2022-09-14T16:57:41.574Z,91.57
2022-09-14T16:58:43.697Z,91.51
2022-09-14T16:59:42.633Z,91.74
2022-09-14T17:00:44.366Z,91.76
2022-09-14T17:01:45.322Z,91.57
2022-09-14T17:02:44.311Z,91.46
2022-09-14T17:03:47.060Z,91.49
2022-09-14T17:04:44.603Z,91.53
2022-09-14T17:05:45.320Z,91.74
2022-09-14T17:06:45.734Z,91.71
2022-09-14T17:07:46.150Z,91.83
2022-09-14T17:08:47.383Z,92.04
2022-09-14T17:09:46.886Z,91.93
2022-09-14T17:10:51.907Z,92.04
2022-09-14T17:11:49.758Z,92.16
2022-09-14T17:12:49.931Z,92.15
2022-09-14T17:13:50.393Z,92.32
2022-09-14T17:14:50.915Z,92.14
2022-09-14T17:15:52.196Z,92.4
2022-09-14T17:16:51.758Z,92.52
2022-09-14T17:17:52.525Z,92.9
2022-09-14T17:18:57.863Z,92.77
2022-09-14T17:19:55.548Z,92.72
2022-09-14T17:21:06.608Z,92.76
2022-09-14T17:21:59.555Z,92.82
2022-09-14T17:22:59.668Z,93.11
2022-09-14T17:24:00.693Z,93.19
2022-09-14T17:25:01.430Z,93.1
2022-09-14T17:26:05.110Z,93.21
2022-09-14T17:27:02.659Z,93.41
2022-09-14T17:28:03.285Z,93.14
2022-09-14T17:29:04.633Z,93.05
2022-09-14T17:30:04.728Z,92.92
2022-09-14T17:31:06.310Z,93.22
2022-09-14T17:32:05.360Z,93.53
2022-09-14T17:33:05.575Z,93.4
2022-09-14T17:34:08.544Z,93.64
2022-09-14T17:35:07.423Z,93.6
2022-09-14T17:36:07.845Z,93.75
2022-09-14T17:37:07.034Z,93.95
2022-09-14T17:38:07.437Z,94.1
2022-09-14T17:39:11.947Z,93.9